createdAt,value
2023-10-10T00:00:31.192Z,82.53
2023-10-10T00:03:01.740Z,78.95
2023-10-10T00:05:40.674Z,74.38
2023-10-10T00:08:13.700Z,73.70
2023-10-10T00:10:54.269Z,71.70
2023-10-10T00:13:26.572Z,76.50
2023-10-10T00:16:00.505Z,72.97
2023-10-10T00:18:32.792Z,71.88
2023-10-10T00:21:09.509Z,74.60
2023-10-10T00:23:50.560Z,72.10
2023-10-10T00:26:24.163Z,75.40
2023-10-10T00:28:58.515Z,72.63
2023-10-10T00:31:34.434Z,75.30
2023-10-10T00:34:04.812Z,71.45
2023-10-10T00:36:36.862Z,71.85
2023-10-10T00:39:14.113Z,69.30
2023-10-10T00:41:53.768Z,73.03
2023-10-10T00:44:25.429Z,69.95
2023-10-10T00:46:59.969Z,72.97
2023-10-10T00:49:34.492Z,73.65
2023-10-10T00:52:09.973Z,73.15
2023-10-10T00:54:46.887Z,76.78
2023-10-10T00:57:19.267Z,68.95
2023-10-10T00:59:51.656Z,72.28
2023-10-10T01:02:24.017Z,74.75
2023-10-10T01:04:57.548Z,74.95
2023-10-10T01:07:29.736Z,70.47
2023-10-10T01:10:00.595Z,68.85
2023-10-10T01:12:38.345Z,69.32
2023-10-10T01:15:18.975Z,69.43
2023-10-10T01:17:49.898Z,66.60
2023-10-10T01:20:37.339Z,66.68
2023-10-10T01:23:07.672Z,69.70
2023-10-10T01:25:37.951Z,68.38
2023-10-10T01:28:30.224Z,68.78
2023-10-10T01:31:02.387Z,69.70
2023-10-10T01:33:39.414Z,70.80
2023-10-10T01:36:20.236Z,72.90
2023-10-10T01:39:11.310Z,75.35
2023-10-10T01:41:44.606Z,72.88
2023-10-10T01:44:34.978Z,72.47
2023-10-10T01:47:06.589Z,72.03
2023-10-10T01:49:38.958Z,76.78
2023-10-10T01:52:15.376Z,74.25
2023-10-10T01:54:49.041Z,74.15
2023-10-10T01:57:25.630Z,76.60
2023-10-10T01:59:56.490Z,72.50
2023-10-10T02:02:29.683Z,76.07
2023-10-10T02:05:02.550Z,79.45
2023-10-10T02:07:35.988Z,77.63
2023-10-10T02:10:16.692Z,77.25
2023-10-10T02:12:49.829Z,78.07
2023-10-10T02:15:22.148Z,79.15
2023-10-10T02:17:58.087Z,80.22
2023-10-10T02:20:28.558Z,77.07
2023-10-10T02:23:13.506Z,77.70
2023-10-10T02:25:51.862Z,73.22
2023-10-10T02:28:22.254Z,78.57
2023-10-10T02:30:56.192Z,84.53
2023-10-10T02:33:26.548Z,79.40
2023-10-10T02:36:02.220Z,78.35
2023-10-10T02:38:43.712Z,80.22
2023-10-10T02:41:41.519Z,81.80
2023-10-10T02:44:28.910Z,77.88
2023-10-10T02:47:02.669Z,74.53
2023-10-10T02:49:33.321Z,72.15
2023-10-10T02:52:09.599Z,75.05
2023-10-10T02:54:47.322Z,72.85
2023-10-10T02:57:30.192Z,77.57
2023-10-10T03:00:28.231Z,72.05
2023-10-10T03:03:02.634Z,70.82
2023-10-10T03:05:42.460Z,69.80
2023-10-10T03:08:37.620Z,71.40
2023-10-10T03:11:38.698Z,77.88
2023-10-10T03:14:11.941Z,73.97
2023-10-10T03:16:47.276Z,78.00
2023-10-10T03:19:29.972Z,77.05
2023-10-10T03:22:23.240Z,79.47
2023-10-10T03:25:11.058Z,82.95
2023-10-10T03:28:13.095Z,90.38
2023-10-10T03:30:55.531Z,81.78
2023-10-10T03:33:44.710Z,82.88
2023-10-10T03:36:23.373Z,76.18
2023-10-10T03:38:55.603Z,77.57
2023-10-10T03:41:40.998Z,95.20
2023-10-10T03:44:29.394Z,85.93
2023-10-10T03:47:08.993Z,79.10
2023-10-10T03:53:24.597Z,79.90
2023-10-10T03:56:14.495Z,90.90
2023-10-10T03:59:06.218Z,86.53
2023-10-10T04:01:54.748Z,91.00
2023-10-10T04:04:43.558Z,91.97
2023-10-10T04:07:37.330Z,80.05
2023-10-10T04:10:29.333Z,76.85
2023-10-10T04:13:17.767Z,74.07
2023-10-10T04:16:06.759Z,74.82
2023-10-10T04:19:15.606Z,80.22
2023-10-10T04:22:04.938Z,73.75
2023-10-10T04:24:53.994Z,67.55
2023-10-10T04:27:42.584Z,68.75
2023-10-10T04:30:31.095Z,67.63
2023-10-10T04:33:22.733Z,69.25
2023-10-10T04:36:11.419Z,64.55
2023-10-10T04:39:00.228Z,69.88
2023-10-10T04:41:48.848Z,65.23
2023-10-10T04:44:37.792Z,59.58
2023-10-10T04:47:28.129Z,62.13
2023-10-10T04:50:17.669Z,54.47
2023-10-10T04:53:06.891Z,58.53
2023-10-10T04:55:55.522Z,62.38
2023-10-10T04:58:44.269Z,59.67
2023-10-10T05:01:32.717Z,63.97
2023-10-10T05:04:21.323Z,60.30
2023-10-10T05:07:10.044Z,57.20
2023-10-10T05:09:58.648Z,58.88
2023-10-10T05:12:47.337Z,57.33
2023-10-10T05:15:44.065Z,56.03
2023-10-10T05:18:32.737Z,54.95
2023-10-10T05:21:21.418Z,51.05
2023-10-10T05:23:52.073Z,52.23
2023-10-10T05:26:22.633Z,55.63
2023-10-10T05:28:55.103Z,52.25
2023-10-10T05:31:26.580Z,55.13
2023-10-10T05:33:57.566Z,50.22
2023-10-10T05:36:31.536Z,48.33
2023-10-10T05:39:02.473Z,51.33
2023-10-10T05:41:36.166Z,51.00
2023-10-10T05:44:06.875Z,49.85
2023-10-10T05:46:40.303Z,50.20
2023-10-10T05:49:10.835Z,52.80
2023-10-10T05:51:41.457Z,50.90
2023-10-10T05:54:14.734Z,52.30
2023-10-10T05:56:47.948Z,48.42
2023-10-10T05:59:18.538Z,47.88
2023-10-10T06:01:49.004Z,46.97
2023-10-10T06:04:19.580Z,46.55
2023-10-10T06:06:55.509Z,48.20
2023-10-10T06:09:30.257Z,47.90
2023-10-10T06:12:07.175Z,48.67
2023-10-10T06:14:40.246Z,48.13
2023-10-10T06:17:12.165Z,45.92
2023-10-10T06:19:42.824Z,45.80
2023-10-10T06:22:18.158Z,46.92
2023-10-10T06:24:49.368Z,50.63
2023-10-10T06:27:19.810Z,45.97
2023-10-10T06:29:53.019Z,45.47
2023-10-10T06:32:24.174Z,47.28
2023-10-10T06:35:08.000Z,44.47
2023-10-10T06:37:38.940Z,44.13
2023-10-10T06:40:12.092Z,43.65
2023-10-10T06:42:52.994Z,46.55
2023-10-10T06:45:25.831Z,44.38
2023-10-10T06:48:00.576Z,44.08
2023-10-10T06:50:38.142Z,43.60
2023-10-10T06:53:09.112Z,43.35
2023-10-10T06:55:42.483Z,43.63
2023-10-10T06:58:19.714Z,41.38
2023-10-10T07:00:50.706Z,39.00
2023-10-10T07:03:33.972Z,45.58
2023-10-10T07:06:10.454Z,43.25
2023-10-10T07:08:40.789Z,45.97
2023-10-10T07:11:14.352Z,42.67
2023-10-10T07:13:50.776Z,46.15
2023-10-10T07:16:21.792Z,45.15
2023-10-10T07:18:59.672Z,57.30
2023-10-10T07:21:40.219Z,54.75
2023-10-10T07:24:17.197Z,60.15
2023-10-10T07:27:02.071Z,60.22
2023-10-10T07:29:32.673Z,59.45
2023-10-10T07:32:29.249Z,55.30
2023-10-10T07:35:02.170Z,55.50
2023-10-10T07:37:33.761Z,56.22
2023-10-10T07:40:24.258Z,57.80
2023-10-10T07:42:54.697Z,55.85
2023-10-10T07:45:33.462Z,56.90
2023-10-10T07:48:05.031Z,58.63
2023-10-10T07:50:41.136Z,53.63
2023-10-10T07:53:16.208Z,57.70
2023-10-10T07:55:57.188Z,53.90
2023-10-10T07:58:49.095Z,54.53
2023-10-10T08:01:22.172Z,52.55
2023-10-10T08:04:00.690Z,52.40
2023-10-10T08:06:31.178Z,56.17
2023-10-10T08:09:22.624Z,51.90
2023-10-10T08:11:58.251Z,52.95
2023-10-10T08:14:34.764Z,51.20
2023-10-10T08:17:08.058Z,51.72
2023-10-10T08:19:38.735Z,50.90
2023-10-10T08:22:15.601Z,51.15
2023-10-10T08:24:46.912Z,51.50
2023-10-10T08:27:17.570Z,52.08
2023-10-10T08:29:52.126Z,52.47
2023-10-10T08:32:26.546Z,51.45
2023-10-10T08:35:00.111Z,52.95
2023-10-10T08:37:31.320Z,56.65
2023-10-10T08:40:18.776Z,53.28
2023-10-10T08:42:51.543Z,55.80
2023-10-10T08:45:30.093Z,53.83
2023-10-10T08:48:07.116Z,55.75
2023-10-10T08:50:37.702Z,53.20
2023-10-10T08:53:08.984Z,58.05
2023-10-10T08:55:41.511Z,52.55
2023-10-10T08:58:14.154Z,53.85
2023-10-10T09:00:47.475Z,54.47
2023-10-10T09:03:21.129Z,56.88
2023-10-10T09:05:51.654Z,55.88
2023-10-10T09:08:31.971Z,57.15
2023-10-10T09:11:02.431Z,55.50
2023-10-10T09:13:35.164Z,55.92
2023-10-10T09:16:10.403Z,53.65
2023-10-10T09:18:42.559Z,54.50
2023-10-10T09:21:23.178Z,55.63
2023-10-10T09:24:11.331Z,55.88
2023-10-10T09:26:48.621Z,58.08
2023-10-10T09:29:45.748Z,53.80
2023-10-10T09:32:25.248Z,54.65
2023-10-10T09:34:57.615Z,56.55
2023-10-10T09:37:38.520Z,56.90
2023-10-10T09:40:18.890Z,54.67
2023-10-10T09:43:10.562Z,53.80
2023-10-10T09:45:58.785Z,58.35
2023-10-10T09:48:37.217Z,56.25
2023-10-10T09:51:26.055Z,53.38
2023-10-10T09:54:07.526Z,57.13
2023-10-10T09:56:40.775Z,57.05
2023-10-10T09:59:12.735Z,55.30
2023-10-10T10:01:49.047Z,55.28
2023-10-10T10:04:31.523Z,60.90
2023-10-10T10:07:44.428Z,58.15
2023-10-10T10:10:26.305Z,56.20
2023-10-10T10:13:31.835Z,61.28
2023-10-10T10:16:41.186Z,59.15
2023-10-10T10:19:21.119Z,59.78
2023-10-10T10:22:11.737Z,55.03
2023-10-10T10:24:48.679Z,60.53
2023-10-10T10:27:38.855Z,58.35
2023-10-10T10:30:23.677Z,60.40
2023-10-10T10:32:57.839Z,61.60
2023-10-10T10:35:47.530Z,61.38
2023-10-10T10:41:21.763Z,65.45
2023-10-10T10:43:55.530Z,61.55
2023-10-10T10:46:43.132Z,66.57
2023-10-10T10:49:16.508Z,63.70
2023-10-10T10:51:52.150Z,62.92
2023-10-10T10:57:50.333Z,63.53
2023-10-10T11:00:44.731Z,63.70
2023-10-10T11:03:16.470Z,67.22
2023-10-10T11:05:48.198Z,67.00
2023-10-10T11:08:18.568Z,60.50
2023-10-10T11:10:49.691Z,61.35
2023-10-10T11:13:19.939Z,58.75
2023-10-10T11:15:50.687Z,64.65
2023-10-10T11:18:37.867Z,58.22
2023-10-10T11:21:15.223Z,62.92
2023-10-10T11:23:45.986Z,62.60
2023-10-10T11:26:17.976Z,62.90
2023-10-10T11:28:51.510Z,62.83
2023-10-10T11:31:26.811Z,62.15
2023-10-10T11:34:13.812Z,64.28
2023-10-10T11:36:44.594Z,64.97
2023-10-10T11:39:37.164Z,68.70
2023-10-10T11:42:08.144Z,73.05
2023-10-10T11:44:38.578Z,68.20
2023-10-10T11:47:11.304Z,72.95
2023-10-10T11:49:44.769Z,67.63
2023-10-10T11:52:24.143Z,69.10
2023-10-10T11:54:58.270Z,63.20
2023-10-10T11:57:32.134Z,61.72
2023-10-10T12:00:16.338Z,63.15
2023-10-10T12:02:54.884Z,63.28
2023-10-10T12:05:28.905Z,61.63
2023-10-10T12:08:02.064Z,61.30
2023-10-10T12:10:50.419Z,61.65
2023-10-10T12:13:34.021Z,62.45
2023-10-10T12:16:14.972Z,61.30
2023-10-10T12:18:58.780Z,58.40
2023-10-10T12:21:29.168Z,60.13
2023-10-10T12:24:02.658Z,61.17
2023-10-10T12:26:33.993Z,63.88
2023-10-10T12:29:05.922Z,63.05
2023-10-10T12:31:37.802Z,63.10
2023-10-10T12:34:12.419Z,60.35
2023-10-10T12:36:43.601Z,61.50
2023-10-10T12:39:18.758Z,62.08
2023-10-10T12:41:51.915Z,67.22
2023-10-10T12:44:23.007Z,66.13
2023-10-10T12:46:57.939Z,71.95
2023-10-10T12:49:39.709Z,70.05
2023-10-10T12:52:15.539Z,73.30
2023-10-10T12:54:50.554Z,76.70
2023-10-10T12:57:20.987Z,76.68
2023-10-10T12:59:51.784Z,82.70
2023-10-10T13:02:29.316Z,78.93
2023-10-10T13:05:00.087Z,70.60
2023-10-10T13:07:37.928Z,71.60
2023-10-10T13:10:13.575Z,65.95
2023-10-10T13:12:48.426Z,66.75
2023-10-10T13:15:22.192Z,63.65
2023-10-10T13:18:14.785Z,65.70
2023-10-10T13:20:46.524Z,68.20
2023-10-10T13:23:17.074Z,76.20
2023-10-10T13:25:47.975Z,73.13
2023-10-10T13:28:23.770Z,73.57
2023-10-10T13:30:54.210Z,72.03
2023-10-10T13:33:24.861Z,69.82
2023-10-10T13:35:55.770Z,72.03
2023-10-10T13:38:28.392Z,71.82
2023-10-10T13:40:58.853Z,66.90
2023-10-10T13:43:29.629Z,67.85
2023-10-10T13:46:01.266Z,66.30
2023-10-10T13:48:33.470Z,67.65
2023-10-10T13:51:07.797Z,62.78
2023-10-10T13:53:42.481Z,64.88
2023-10-10T13:56:14.827Z,63.38
2023-10-10T13:58:50.137Z,62.85
2023-10-10T14:01:39.791Z,67.97
2023-10-10T14:04:27.315Z,66.47
2023-10-10T14:07:04.208Z,66.38
2023-10-10T14:09:47.909Z,68.20
2023-10-10T14:12:26.321Z,68.28
2023-10-10T14:14:56.722Z,75.07
2023-10-10T14:17:27.366Z,73.05
2023-10-10T14:19:57.836Z,79.53
2023-10-10T14:22:38.028Z,71.85
2023-10-10T14:25:20.775Z,70.35
2023-10-10T14:27:52.853Z,71.90
2023-10-10T14:30:26.591Z,75.53
2023-10-10T14:33:01.603Z,72.50
2023-10-10T14:35:32.090Z,73.68
2023-10-10T14:38:04.156Z,77.47
2023-10-10T14:40:36.516Z,84.03
2023-10-10T14:43:10.156Z,82.68
2023-10-10T14:45:47.347Z,77.53
2023-10-10T14:48:22.152Z,78.25
2023-10-10T14:51:00.488Z,74.63
2023-10-10T14:53:30.933Z,76.57
2023-10-10T14:56:01.530Z,75.15
2023-10-10T14:58:32.701Z,75.50
2023-10-10T15:01:03.087Z,75.78
2023-10-10T15:03:44.343Z,74.03
2023-10-10T15:06:19.022Z,75.40
2023-10-10T15:08:49.758Z,73.93
2023-10-10T15:11:20.185Z,75.10
2023-10-10T15:13:51.383Z,78.25
2023-10-10T15:16:24.473Z,75.90
2023-10-10T15:18:57.835Z,75.25
2023-10-10T15:21:36.959Z,77.47
2023-10-10T15:24:14.609Z,77.50
2023-10-10T15:26:49.836Z,78.20
2023-10-10T15:29:22.127Z,75.32
2023-10-10T15:31:53.413Z,69.55
2023-10-10T15:34:23.849Z,71.40
2023-10-10T15:36:54.214Z,74.18
2023-10-10T15:39:26.699Z,72.38
2023-10-10T15:41:57.163Z,73.25
2023-10-10T15:44:28.009Z,73.07
2023-10-10T15:47:06.440Z,72.07
2023-10-10T15:52:09.811Z,69.63
2023-10-10T15:54:40.201Z,73.35
2023-10-10T15:57:11.808Z,72.70
2023-10-10T15:59:45.536Z,73.85
2023-10-10T16:02:17.042Z,71.97
2023-10-10T16:04:47.956Z,69.85
2023-10-10T16:07:19.381Z,70.03
2023-10-10T16:09:49.807Z,72.43
2023-10-10T16:12:20.131Z,69.82
2023-10-10T16:14:51.126Z,69.95
2023-10-10T16:17:21.521Z,70.13
2023-10-10T16:19:52.065Z,70.63
2023-10-10T16:22:22.424Z,72.38
2023-10-10T16:24:55.865Z,73.20
2023-10-10T16:27:26.318Z,75.15
2023-10-10T16:29:59.015Z,68.15
2023-10-10T16:32:29.776Z,71.28
2023-10-10T16:35:00.214Z,67.82
2023-10-10T16:37:30.475Z,70.47
2023-10-10T16:40:01.858Z,71.07
2023-10-10T16:42:32.137Z,67.47
2023-10-10T16:45:02.944Z,68.35
2023-10-10T16:47:33.480Z,65.60
2023-10-10T16:50:05.163Z,64.35
2023-10-10T16:52:41.814Z,67.00
2023-10-10T16:55:17.231Z,66.78
2023-10-10T16:57:47.696Z,65.28
2023-10-10T17:00:18.681Z,63.85
2023-10-10T17:02:49.345Z,64.70
2023-10-10T17:05:26.874Z,63.25
2023-10-10T17:07:57.239Z,64.45
2023-10-10T17:10:27.623Z,64.45
2023-10-10T17:12:59.240Z,63.28
2023-10-10T17:15:30.231Z,68.40
2023-10-10T17:18:00.820Z,63.25
2023-10-10T17:20:31.341Z,61.67
2023-10-10T17:23:02.687Z,64.15
2023-10-10T17:36:33.480Z,70.22
2023-10-10T17:39:04.048Z,70.68
2023-10-10T17:41:37.999Z,64.95
2023-10-10T17:44:11.953Z,62.28
2023-10-10T17:46:42.243Z,61.55
2023-10-10T17:49:12.995Z,61.20
2023-10-10T17:51:47.319Z,62.97
2023-10-10T17:54:18.907Z,61.10
2023-10-10T17:56:50.616Z,62.28
2023-10-10T17:59:22.663Z,63.42
2023-10-10T18:01:55.341Z,59.33
2023-10-10T18:04:27.182Z,59.33
2023-10-10T18:06:57.884Z,58.80
2023-10-10T18:09:33.579Z,59.97
2023-10-10T18:12:04.065Z,57.75
2023-10-10T18:14:34.451Z,61.42
2023-10-10T18:17:08.390Z,58.65
2023-10-10T18:19:43.019Z,60.15
2023-10-10T18:22:13.493Z,58.45
2023-10-10T18:24:43.749Z,61.92
2023-10-10T18:27:14.542Z,61.92
2023-10-10T18:29:45.081Z,58.03
2023-10-10T18:32:18.678Z,55.47
2023-10-10T18:34:49.079Z,55.22
2023-10-10T18:37:19.352Z,59.47
2023-10-10T18:39:49.619Z,57.63
2023-10-10T18:42:19.817Z,57.67
2023-10-10T18:44:51.019Z,57.95
2023-10-10T18:47:21.317Z,52.63
2023-10-10T18:49:51.631Z,53.85
2023-10-10T18:52:22.505Z,54.67
2023-10-10T18:54:55.714Z,52.42
2023-10-10T18:57:26.041Z,56.22
2023-10-10T18:59:56.366Z,53.90
2023-10-10T19:02:26.810Z,57.65
2023-10-10T19:04:57.139Z,55.90
2023-10-10T19:07:29.037Z,52.25
2023-10-10T19:10:03.257Z,55.00
2023-10-10T19:12:33.567Z,55.53
2023-10-10T19:15:03.949Z,52.13
2023-10-10T19:17:34.393Z,52.97
2023-10-10T19:20:04.811Z,53.67
2023-10-10T19:22:35.206Z,51.20
2023-10-10T19:25:09.675Z,54.22
2023-10-10T19:27:39.903Z,53.05
2023-10-10T19:30:12.625Z,53.47
2023-10-10T19:32:43.033Z,52.85
2023-10-10T19:35:13.627Z,49.85
2023-10-10T19:37:47.615Z,55.05
2023-10-10T19:40:22.419Z,52.00
2023-10-10T19:42:54.056Z,49.53
2023-10-10T19:45:26.399Z,51.00
2023-10-10T19:48:19.064Z,52.38
2023-10-10T19:50:52.209Z,50.72
2023-10-10T19:53:22.641Z,52.10
2023-10-10T19:55:53.041Z,51.25
2023-10-10T19:58:24.085Z,54.28
2023-10-10T20:00:54.575Z,53.65
2023-10-10T20:03:31.024Z,51.95
2023-10-10T20:06:01.511Z,51.50
2023-10-10T20:08:32.200Z,54.63
2023-10-10T20:11:02.546Z,51.28
2023-10-10T20:13:33.343Z,55.67
2023-10-10T20:16:06.781Z,52.05
2023-10-10T20:18:37.286Z,50.60
2023-10-10T20:21:10.004Z,50.53
2023-10-10T20:23:41.692Z,52.60
2023-10-10T20:26:20.552Z,52.92
2023-10-10T20:28:51.614Z,53.43
2023-10-10T20:31:24.875Z,55.25
2023-10-10T20:33:55.554Z,54.97
2023-10-10T20:36:26.906Z,54.45
2023-10-10T20:38:57.414Z,53.97
2023-10-10T20:41:28.388Z,53.65
2023-10-10T20:43:58.867Z,52.17
2023-10-10T20:46:31.821Z,52.67
2023-10-10T20:49:03.728Z,55.97
2023-10-10T20:51:34.045Z,50.35
2023-10-10T20:54:04.567Z,51.35
2023-10-10T20:56:35.023Z,46.58
2023-10-10T20:59:05.362Z,47.72
2023-10-10T21:01:35.621Z,52.58
2023-10-10T21:04:07.767Z,49.75
2023-10-10T21:06:39.850Z,48.80
2023-10-10T21:09:12.959Z,52.80
2023-10-10T21:11:45.122Z,51.15
2023-10-10T21:14:15.604Z,51.72
2023-10-10T21:16:45.959Z,49.80
2023-10-10T21:19:16.966Z,48.95
2023-10-10T21:21:47.440Z,48.67
2023-10-10T21:24:17.818Z,45.85
2023-10-10T21:26:48.196Z,48.65
2023-10-10T21:29:21.867Z,45.55
2023-10-10T21:31:53.347Z,46.10
2023-10-10T21:34:24.342Z,47.97
2023-10-10T21:36:57.794Z,47.35
2023-10-10T21:39:28.244Z,48.90
2023-10-10T21:41:58.684Z,49.25
2023-10-10T21:44:29.023Z,46.20
2023-10-10T21:46:59.381Z,50.85
2023-10-10T21:49:32.441Z,47.13
2023-10-10T21:52:03.305Z,45.15
2023-10-10T21:54:35.945Z,47.70
2023-10-10T21:57:07.252Z,48.88
2023-10-10T21:59:37.914Z,43.67
2023-10-10T22:02:12.819Z,42.47
2023-10-10T22:04:43.719Z,44.70
2023-10-10T22:07:29.104Z,46.75
2023-10-10T22:10:00.549Z,44.72
2023-10-10T22:12:30.936Z,47.75
2023-10-10T22:15:01.408Z,48.72
2023-10-10T22:17:31.797Z,50.65
2023-10-10T22:20:02.449Z,49.95
2023-10-10T22:22:34.836Z,45.17
2023-10-10T22:25:13.929Z,44.97
2023-10-10T22:27:45.155Z,43.47
2023-10-10T22:30:17.152Z,46.47
2023-10-10T22:32:51.298Z,45.25
2023-10-10T22:35:23.133Z,47.13
2023-10-10T22:37:55.497Z,49.33
2023-10-10T22:40:29.235Z,46.83
2023-10-10T22:43:05.115Z,46.70
2023-10-10T22:45:37.893Z,50.58
2023-10-10T22:48:12.517Z,44.90
2023-10-10T22:50:43.992Z,48.58
2023-10-10T22:53:17.016Z,48.45
2023-10-10T22:55:49.828Z,51.10
2023-10-10T22:58:23.402Z,49.20
2023-10-10T23:00:54.029Z,50.17
2023-10-10T23:03:26.294Z,50.58
2023-10-10T23:05:56.755Z,47.88
2023-10-10T23:08:27.008Z,50.35
2023-10-10T23:10:59.057Z,47.58
2023-10-10T23:13:29.466Z,50.78
2023-10-10T23:16:01.260Z,50.08
2023-10-10T23:18:31.784Z,49.92
2023-10-10T23:21:02.321Z,51.75
2023-10-10T23:23:32.639Z,52.53
2023-10-10T23:26:03.088Z,51.65
2023-10-10T23:28:37.787Z,52.13
2023-10-10T23:31:08.374Z,52.55
2023-10-10T23:33:39.761Z,51.40
2023-10-10T23:36:10.205Z,51.45
2023-10-10T23:38:43.633Z,51.53
2023-10-10T23:41:21.474Z,49.55
2023-10-10T23:43:51.796Z,52.72
2023-10-10T23:46:25.463Z,47.38
2023-10-10T23:48:57.937Z,54.20
2023-10-10T23:51:30.706Z,55.90
2023-10-10T23:54:03.917Z,53.92
2023-10-10T23:56:37.291Z,52.55
2023-10-10T23:59:07.587Z,55.53
